Bella Desgagnes — CZJG — position and weather

sailwx.info

Track history (hours):
 
Tides and Currents Weather Stations Pressure Air Temp Water Temp Dewpoint Dewpoint Depression Visibility Wind Speed Wind Dir Waves Ship Positions

Bella Desgagnes

Last reported at 2017-Dec-11 16:00 UTC. Time now 2017-Dec-12 06:24 UTC.
Position N 49°48' W 064°30'.

Length 97 m; draft 4.5 m.

Type: Passenger vessel. MMSI: 316023823.

Wind from 280 at 23 knots

Barometer 1012.9 mb
Air temperature -11.2 ° C
Dewpoint -17.5 ° C
Water temperature 0.8 ° C

Date/timePositionNaut miles runAvg speedWind from/ knotsBaromVisibWave heightAir tempDewpointWater temp
2017-Dec-11 16:00N 49°48' W 064°30'6 6.0 280 / 231012.9 -11.2-17.5 0.8
2017-Dec-11 15:00N 49°54' W 064°30'8 7.7 290 / 311011.8 -12.1-17.5 0.8
2017-Dec-11 14:00N 49°54' W 064°18'7 7.1 270 / 321010.2 -11.3-16.6 1.2
2017-Dec-11 13:00N 50°00' W 064°12'1313.0 270 / 291008.8 -9.7-15.6 1.3
2017-Dec-11 12:00N 50°06' W 063°54'7 7.1 270 / 321007.3 -9.1-13.9 1.3
2017-Dec-11 11:00N 50°12' W 063°48'4 3.8 280 / 301005.9 -8.8-11.3 1.1
2017-Dec-11 10:00N 50°12' W 063°42'4 3.8 290 / 251004.6 -8.2-11.4 1.1
2017-Dec-11 09:00N 50°12' W 063°36'0 0.0 280 / 181004.7 -8.4-10.0 0.9
2017-Dec-11 08:00N 50°12' W 063°36'8 7.7 280 / 161003.3 -7.6-10.8 0.9
2017-Dec-11 07:00N 50°12' W 063°24'8 7.7 290 / 261002.8 -5.8-9.6 1.1
2017-Dec-11 06:00N 50°12' W 063°12'1313.0 300 / 171001.9 -5.6-7.4 1.1
2017-Dec-11 05:00N 50°06' W 062°54'8 7.7 290 / 181001.1 -5.3-9.6 1.2
2017-Dec-11 04:00N 50°06' W 062°42'8 7.7 300 / 191000.3 -5.0-10.2 1.2
2017-Dec-11 03:00N 50°06' W 062°30'8 7.7 290 / 26999.2 -4.6-9.0 1.4
2017-Dec-11 02:00N 50°06' W 062°18'1211.5 290 / 27998.2 -3.9-8.2 1.4
2017-Dec-11 01:00N 50°06' W 062°00'1211.5 290 / 24996.4 -3.5-6.9 1.6
2017-Dec-11 00:00N 50°06' W 061°42'1211.5 300 / 29995.0 -3.0-6.9 1.9
2017-Dec-10 23:00N 50°06' W 061°24'7 7.1 290 / 28992.4 -3.9-6.8 2.3
2017-Dec-10 22:00N 50°12' W 061°18'0 0.0 280 / 19991.3 -3.9-5.9 2.2
2017-Dec-10 21:00N 50°12' W 061°18'10 9.8 280 / 14988.9 -2.9-4.7 2.1
2017-Dec-10 20:00N 50°06' W 061°06'1211.5 310 / 26986.4 -1.3-3.5 2.1
2017-Dec-10 19:00N 50°06' W 060°48'7 7.1 330 / 30984.4 -0.7-2.4 2.4
2017-Dec-10 18:00N 50°12' W 060°42'0 0.0 320 / 19984.4 -0.8-1.8 2.5
2017-Dec-10 17:00N 50°12' W 060°42'0 0.0 340 / 15984.2 -0.9-1.6 2.2
2017-Dec-10 16:00N 50°12' W 060°42'0 0.0 360 / 13986.4 -0.7-1.8 2.4
2017-Dec-10 15:00N 50°12' W 060°42'10 9.8 050 / 29988.0 -1.0-2.0 2.1
2017-Dec-10 14:00N 50°06' W 060°30'8 7.7 050 / 28990.6 -0.7-0.9 2.0
2017-Dec-10 13:00N 50°06' W 060°18'8 7.7 040 / 30992.4 -0.2-0.4 2.2
2017-Dec-10 12:00N 50°06' W 060°06'1313.0 050 / 29996.0 -0.1-0.3 2.3
2017-Dec-10 11:00N 50°12' W 059°48'10 9.7 060 / 241000.3 -0.3-0.7 2.8
2017-Dec-10 10:00N 50°18' W 059°36'7 7.1 070 / 201003.4 -0.9-1.3 2.9
2017-Dec-10 09:00N 50°24' W 059°30'6 6.0 090 / 201005.5 -1.3-2.0 2.6
2017-Dec-10 08:00N 50°30' W 059°30'0 0.0 080 / 161008.2 -0.5-1.4 3.0
2017-Dec-10 07:00N 50°30' W 059°30'0 0.0 090 / 121011.1 -0.0-1.0 3.1
2017-Dec-10 06:00N 50°30' W 059°30'1312.9 090 / 131012.2 0.9-4.1 3.1
2017-Dec-10 05:00N 50°36' W 059°12'6 6.0 130 / 111013.6 0.9-5.7 2.9
2017-Dec-10 04:00N 50°42' W 059°12'4 3.8 150 / 101015.3 0.7-5.0 2.9
2017-Dec-10 03:00N 50°42' W 059°06'1414.2 180 / 121016.2 1.0-5.3 3.0
2017-Dec-10 02:00N 50°54' W 058°54'6 6.0 190 / 151017.5 0.8-4.8 3.4
2017-Dec-10 01:00N 50°48' W 058°54'0 0.0 210 / 61017.7 -0.0-4.9 3.6
2017-Dec-10 00:00N 50°48' W 058°54'10 9.7 210 / 91017.2 0.2-5.2 2.6
2017-Dec-09 23:00N 50°54' W 058°42'1716.5 240 / 121017.5 0.5-5.0 2.6
2017-Dec-09 22:00N 51°06' W 058°24'10 9.6 230 / 111017.8 -0.3-5.2 2.6
2017-Dec-09 21:00N 51°12' W 058°36'0 0.0 220 / 61018.0 -2.1-6.8 4.1
2017-Dec-09 20:00N 51°12' W 058°36'0 0.0 230 / 21017.6 -2.3-6.9 4.0
2017-Dec-09 19:00N 51°12' W 058°36'4 3.8 260 / 51017.0 -2.0-7.7 3.7
2017-Dec-09 18:00N 51°12' W 058°30'1515.0 270 / 151016.1 -2.0-8.2 2.8
2017-Dec-09 17:00N 51°12' W 058°06'1312.8 280 / 161015.6 -2.4-7.6 2.8
2017-Dec-09 16:00N 51°18' W 057°48'1515.0 270 / 231015.3 -2.4-7.4 2.7
2017-Dec-09 15:00N 51°18' W 057°24'1312.7 270 / 211014.9 -2.1-7.3 3.6
2017-Dec-09 14:00N 51°24' W 057°06'0 0.0 280 / 71015.3 -2.5-7.2
2017-Dec-09 13:00N 51°24' W 057°06'0 0.0 320 / 101014.7 -6.0-8.4
2017-Dec-09 12:00N 51°24' W 057°06'0 0.0 300 / 71014.3 -3.6-6.8 3.1
2017-Dec-09 11:00N 51°24' W 057°06'0 0.0 330 / 71013.5 -6.7-9.4 3.3
2017-Dec-09 10:00N 51°24' W 057°06'4 3.7 330 / 91013.0 -6.8-9.8 3.2
2017-Dec-09 09:00N 51°24' W 057°12'1312.7 300 / 101012.7 -3.6-6.5 3.3
2017-Dec-09 08:00N 51°18' W 057°30'8 7.5 270 / 121011.8 -3.0-6.3 3.4
2017-Dec-09 07:00N 51°18' W 057°42'4 3.8 280 / 121011.7 -3.0-6.8 2.7
2017-Dec-09 06:00N 51°18' W 057°48'10 9.6 270 / 131011.3 -2.7-7.3 3.4
2017-Dec-09 05:00N 51°12' W 058°00'8 7.5 260 / 141011.1 -3.0-7.8 2.8
2017-Dec-09 04:00N 51°12' W 058°12'1111.3 260 / 101010.6 -3.8-7.7 2.7
2017-Dec-09 03:00N 51°12' W 058°30'4 3.8 270 / 61010.7 -4.7-8.6 2.1
2017-Dec-09 02:00N 51°12' W 058°36'0 0.0 250 / 81010.5 -4.4-8.5 2.9
2017-Dec-09 01:00N 51°12' W 058°36'8 7.5 240 / 91009.9 -5.2-8.4 2.5
2017-Dec-09 00:00N 51°12' W 058°24'1414.2 260 / 181009.5 -4.2-8.6 2.3
2017-Dec-08 23:00N 51°00' W 058°36'1312.8 270 / 171008.8 -3.4-8.4 2.8
2017-Dec-08 22:00N 50°54' W 058°54'6 6.0 270 / 131008.2 -4.0-8.6 3.4
2017-Dec-08 21:00N 50°48' W 058°54'0 0.0 280 / 71007.3 -3.5-8.4 3.9
2017-Dec-08 20:00N 50°48' W 058°54'0 0.0 270 / 81006.0 -2.4-8.5 4.2
2017-Dec-08 19:00N 50°48' W 058°54'10 9.7 260 / 151004.7 -1.5-8.1 3.3
2017-Dec-08 18:00N 50°42' W 059°06'4 3.8 260 / 161004.8 -0.0-7.3 2.6
2017-Dec-08 17:00N 50°42' W 059°12'0 0.0 280 / 141004.5 -1.2-6.9 3.1
2017-Dec-08 16:00N 50°42' W 059°12'6 6.0 270 / 131004.6 -1.6-6.3 3.2
2017-Dec-08 15:00N 50°36' W 059°12'1312.9 270 / 121005.1 -1.7-6.0 3.6
2017-Dec-08 14:00N 50°30' W 059°30'0 0.0 280 / 101005.0 -1.8-5.9 3.5
2017-Dec-08 13:00N 50°30' W 059°30'0 0.0 260 / 111004.5 -2.1-5.7 3.9
2017-Dec-08 12:00N 50°30' W 059°30'6 6.0 250 / 111004.2 -2.3-5.0 3.2
2017-Dec-08 11:00N 50°24' W 059°30'7 7.1 250 / 131003.7 -1.8-5.2 2.4
2017-Dec-08 10:00N 50°18' W 059°36'10 9.7 260 / 151003.6 -1.9-5.6 3.2
2017-Dec-08 09:00N 50°12' W 059°48'7 7.1 270 / 111003.7 -0.9-4.9 2.6
2017-Dec-08 08:00N 50°06' W 059°54'1211.5 250 / 111003.8 -0.6-3.7 2.6
2017-Dec-08 07:00N 50°06' W 060°12'1211.5 270 / 131003.7 -0.9-4.8 2.5
2017-Dec-08 06:00N 50°06' W 060°30'10 9.8 290 / 141003.4 -1.2-5.9 2.3
2017-Dec-08 05:00N 50°12' W 060°42'0 0.0 300 / 131003.1 -2.1-5.1 2.5
2017-Dec-08 04:00N 50°12' W 060°42'0 0.0 300 / 111003.2 -1.1-5.4
2017-Dec-08 03:00N 50°12' W 060°42'0 0.0 270 / 221002.8 -0.2-5.7 2.6
2017-Dec-08 02:00N 50°12' W 060°42'0 0.0 290 / 111003.2 -0.4-4.5 2.8
2017-Dec-08 01:00N 50°12' W 060°42'7 7.1 270 / 191003.0 -0.6-3.3 2.4
2017-Dec-08 00:00N 50°06' W 060°48'1211.5 290 / 171003.3 -0.8-3.5 2.2
2017-Dec-07 23:00N 50°06' W 061°06'10 9.8 280 / 221002.8 0.1-3.2 2.2
2017-Dec-07 22:00N 50°12' W 061°18'0 0.0 260 / 101002.5 -0.3-4.7 2.5
2017-Dec-07 21:00N 50°12' W 061°18'0 0.0 280 / 61002.3 -0.7-4.1 2.2
2017-Dec-07 20:00N 50°12' W 061°18'1313.0 250 / 121002.3 0.4-4.9 2.0
2017-Dec-07 19:00N 50°06' W 061°36'1211.5 240 / 101002.4 0.9-4.3 1.6
2017-Dec-07 18:00N 50°06' W 061°54'7 7.1 240 / 171002.3 0.7-5.0 1.7
2017-Dec-07 17:00N 50°12' W 061°48'0 0.0 240 / 121002.9 0.9-2.8 1.3
2017-Dec-07 16:00N 50°12' W 061°48'8 7.7 240 / 121003.1 0.9-2.7 1.3
2017-Dec-07 15:00N 50°12' W 062°00'1211.5 240 / 141003.8 1.1-2.5 1.6
2017-Dec-07 14:00N 50°12' W 062°18'8 7.7 230 / 131003.8 0.9-2.4 1.5
2017-Dec-07 13:00N 50°12' W 062°30'8 7.7 240 / 151004.0 1.0-2.5 1.8
2017-Dec-07 12:00N 50°12' W 062°42'10 9.8 250 / 141004.1 0.7-4.7 1.6
2017-Dec-07 11:00N 50°06' W 062°54'1313.0 250 / 161003.9 0.9-3.9 1.5
2017-Dec-07 10:00N 50°12' W 063°12'8 7.7 260 / 191003.5 1.1-4.4 1.4
2017-Dec-07 09:00N 50°12' W 063°24'8 7.7 260 / 201003.4 1.2-4.3 1.5
2017-Dec-07 08:00N 50°12' W 063°36'0 0.0 260 / 151003.3 0.4-3.8
2017-Dec-07 07:00N 50°12' W 063°36'0 0.0 260 / 151003.1 0.5-4.5 1.2
2017-Dec-07 06:00N 50°12' W 063°36'0 0.0 260 / 131003.1 0.8-4.5 1.1
2017-Dec-07 05:00N 50°12' W 063°36'0 0.0 250 / 111003.1 0.7-2.1 1.2
2017-Dec-07 04:00N 50°12' W 063°36'8 7.7 250 / 121003.4 0.7-1.7 1.1
2017-Dec-07 03:00N 50°12' W 063°48'10 9.8 270 / 201003.4 1.1-1.8 1.5
2017-Dec-07 02:00N 50°06' W 064°00'10 9.8 270 / 231003.3 1.2-2.0 1.6
2017-Dec-07 01:00N 50°00' W 064°12'10 9.8 260 / 161003.6 1.3-1.8 1.3
2017-Dec-07 00:00N 49°54' W 064°24'8 7.7 270 / 201002.8 1.3-1.9 1.2
2017-Dec-06 23:00N 49°54' W 064°36'10 9.8 250 / 201001.4 1.6-1.7 1.2
2017-Dec-06 22:00N 49°48' W 064°24'0 0.0 270 / 141002.2 2.1-1.0 1.1
2017-Dec-06 21:00N 49°48' W 064°24'0 0.0 280 / 51002.1 2.1 1.0 0.4
2017-Dec-06 20:00N 49°48' W 064°24'0 0.0 220 / 141001.6 2.3 2.0 0.3
2017-Dec-06 19:00N 49°48' W 064°24'7 7.1 130 / 191001.9 1.9 1.6 0.5
2017-Dec-06 18:00N 49°42' W 064°18'0 0.0 140 / 241002.3 2.3 1.8
2017-Dec-06 17:00N 49°42' W 064°18'0 0.0 130 / 301003.0 2.3 1.6
2017-Dec-06 16:00N 49°42' W 064°18'0 0.0 140 / 291005.2 2.3 1.5
2017-Dec-06 15:00N 49°42' W 064°18'0 0.0 140 / 331006.1 2.1 1.5
2017-Dec-06 14:00N 49°42' W 064°18'0 0.0 150 / 341007.4 2.3 1.3 1.1
2017-Dec-06 13:00N 49°42' W 064°18'0 0.0 150 / 421007.3 2.7 1.4 1.1
2017-Dec-06 12:00N 49°42' W 064°18'6 6.0 150 / 411007.6 1.8 0.5 1.1
2017-Dec-06 11:00N 49°48' W 064°18'0 0.0 140 / 421008.4 1.0 0.9
2017-Dec-06 10:00N 49°48' W 064°18'0 0.0 140 / 421010.4 0.5 0.4
2017-Dec-06 09:00N 49°48' W 064°18'0 0.0 140 / 391012.4 0.1-0.0
2017-Dec-06 08:00N 49°48' W 064°18'0 0.0 140 / 351014.9 -0.0-0.1
2017-Dec-06 07:00N 49°48' W 064°18'0 0.0 140 / 321017.2 -0.1-0.2
2017-Dec-06 06:00N 49°48' W 064°18'0 0.0 130 / 311018.7 -0.1-0.2 1.0
2017-Dec-06 05:00N 49°48' W 064°18'0 0.0 140 / 311020.4 -0.1-0.2 1.1
2017-Dec-06 04:00N 49°48' W 064°18'4 3.9 140 / 311021.3 -0.2-0.3 1.0
2017-Dec-06 03:00N 49°48' W 064°24'8 7.7 150 / 331022.3 -0.2-0.5 1.2
2017-Dec-06 02:00N 49°48' W 064°36'8 7.7 150 / 321022.7 -0.3-0.7 1.4
2017-Dec-06 01:00N 49°48' W 064°48'10 9.8 150 / 341022.8 0.8-2.0 1.3
2017-Dec-06 00:00N 49°54' W 065°00'1211.6 150 / 321022.8 0.5-2.0 1.4
2017-Dec-05 23:00N 49°54' W 065°18'8 7.7 140 / 311023.3 0.3-2.2 1.2
2017-Dec-05 22:00N 49°54' W 065°30'1716.7 130 / 311022.7 0.2-2.1 1.4
2017-Dec-05 21:00N 50°06' W 065°48'1211.5 140 / 271024.0 0.3-3.0 1.8
2017-Dec-05 20:00N 50°06' W 066°06'1313.0 130 / 241024.4 -0.4-2.0 1.7
2017-Dec-05 19:00N 50°12' W 066°24'0 0.0 110 / 201025.7 -0.9-3.0 1.8
2017-Dec-05 18:00N 50°12' W 066°24'0 0.0 100 / 201026.5 -0.7-3.2
2017-Dec-05 17:00N 50°12' W 066°24'0 0.0 100 / 171027.8 -0.5-2.9
2017-Dec-05 16:00N 50°12' W 066°24'0 0.0 100 / 181029.0 -0.6-2.8
2017-Dec-05 15:00N 50°12' W 066°24'0 0.0 100 / 171030.0 -0.8-3.1
2017-Dec-05 14:00N 50°12' W 066°24'0 0.0 070 / 61031.0 -2.9-4.9
2017-Dec-05 13:00N 50°12' W 066°24'0 0.0 070 / 51031.7 -3.7-5.6
2017-Dec-05 12:00N 50°12' W 066°24'0 0.0 070 / 61032.2 -4.6-6.6
2017-Dec-05 11:00N 50°12' W 066°24'0 0.0 060 / 71032.3 -5.3-7.4
2017-Dec-05 10:00N 50°12' W 066°24'0 0.0 070 / 61032.1 -6.4-8.5
2017-Dec-05 09:00N 50°12' W 066°24'0 0.0 060 / 41032.5 -7.2-9.6 1.0
2017-Dec-05 08:00N 50°12' W 066°24'0 0.0 090 / 41032.7 -7.2-9.8 1.5
2017-Dec-05 07:00N 50°12' W 066°24'4 3.8 080 / 21032.9 -8.4-10.9 1.6
2017-Dec-05 06:00N 50°12' W 066°18'1716.5 010 / 81032.5 -5.1-7.5 1.0
2017-Dec-05 05:00N 50°06' W 065°54'1313.0 220 / 41033.0 -1.7-4.6 1.8
2017-Dec-05 04:00N 50°00' W 065°36'1716.6 230 / 31033.0 -1.6-6.0 1.2
2017-Dec-05 03:00N 49°54' W 065°12'1211.6 220 / 31033.1 -1.7-5.3 1.2
2017-Dec-05 02:00N 49°54' W 064°54'10 9.8 250 / 71033.5 -1.8-5.1 1.3
2017-Dec-05 01:00N 49°48' W 064°42'8 7.7 290 / 91033.4 -1.6-4.9 1.1
2017-Dec-05 00:00N 49°48' W 064°30'4 3.9 300 / 121033.6 -1.5-4.7 1.4
2017-Dec-04 23:00N 49°48' W 064°24'0 0.0 350 / 41034.1 -2.8-5.1 1.4
2017-Dec-04 22:00N 49°48' W 064°24'0 0.0 330 / 61033.6 -2.3-4.8 1.0
2017-Dec-04 21:00N 49°48' W 064°24'10 9.8 300 / 81033.0 -1.2-4.5 1.3
2017-Dec-04 20:00N 49°54' W 064°36'8 7.7 300 / 71032.2 -1.1-4.4 1.4
2017-Dec-04 19:00N 49°54' W 064°24'10 9.8 320 / 81031.7 -0.6-4.6 1.4
2017-Dec-04 18:00N 50°00' W 064°12'1313.0 340 / 71031.6 -0.4-5.0 2.2
2017-Dec-04 17:00N 50°06' W 063°54'7 7.1 360 / 81031.4 -1.4-6.0 1.8
2017-Dec-04 16:00N 50°12' W 063°48'8 7.7 360 / 71031.5 -1.8-6.8 1.6
2017-Dec-04 15:00N 50°12' W 063°36'0 0.0 020 / 41031.9 -2.0-7.4 1.1
2017-Dec-04 14:00N 50°12' W 063°36'0 0.0 020 / 41031.6 -2.7-7.1 1.3
2017-Dec-04 13:00N 50°12' W 063°36'1211.5 030 / 151030.9 -2.7-6.6 1.3
2017-Dec-04 12:00N 50°12' W 063°18'10 9.8 040 / 151030.2 -2.9-6.7 1.5
2017-Dec-04 11:00N 50°06' W 063°06'8 7.7 040 / 141029.7 -1.9-5.5 1.6
2017-Dec-04 10:00N 50°06' W 062°54'1313.0 050 / 141029.3 -2.3-6.0 1.8
2017-Dec-04 09:00N 50°12' W 062°36'8 7.7 040 / 131028.7 -2.5-6.1 1.5
2017-Dec-04 08:00N 50°12' W 062°24'1211.5 050 / 141028.0 -3.0-6.1 1.6
2017-Dec-04 07:00N 50°12' W 062°06'1211.5 050 / 141027.7 -2.6-6.2 1.5
2017-Dec-04 06:00N 50°12' W 061°48'0 0.0 030 / 101027.3 -4.2-7.2 2.3
2017-Dec-04 05:00N 50°12' W 061°48'7 7.1 040 / 131027.1 -3.5-6.8 1.8
2017-Dec-04 04:00N 50°06' W 061°42'1515.4 360 / 101027.1 -2.8-5.7 2.4
2017-Dec-04 03:00N 50°06' W 061°18'6 6.0 020 / 81026.9 -2.2-4.9 1.8
2017-Dec-04 02:00N 50°12' W 061°18'0 0.0 020 / 81026.8 -2.5-5.3 1.9
2017-Dec-04 01:00N 50°12' W 061°18'1716.5 040 / 121026.5 -1.7-4.7 1.7
2017-Dec-04 00:00N 50°06' W 060°54'10 9.8 030 / 151026.3 -1.0-3.9 2.2
2017-Dec-03 23:00N 50°12' W 060°42'0 0.0 020 / 71026.6 -1.5-4.2 2.7
2017-Dec-03 22:00N 50°12' W 060°42'0 0.0 010 / 61026.6 -1.2-3.9 2.9
2017-Dec-03 21:00N 50°12' W 060°42'0 0.0 010 / 61026.3 -1.3-3.9 2.5
2017-Dec-03 20:00N 50°12' W 060°42'10 9.8 030 / 101025.8 -1.3-4.3 2.1
2017-Dec-03 19:00N 50°06' W 060°30'8 7.7 060 / 111025.4 -0.6-3.8 2.4
2017-Dec-03 18:00N 50°06' W 060°18'1211.5 060 / 151025.4 -0.7-3.0 2.7
2017-Dec-03 17:00N 50°06' W 060°00'10 9.8 050 / 141025.4 -0.9-3.4 2.6
2017-Dec-03 16:00N 50°12' W 059°48'10 9.7 040 / 141025.6 -0.7-3.4 2.7
2017-Dec-03 15:00N 50°18' W 059°36'7 7.1 030 / 131026.2 -0.8-4.3 3.3
2017-Dec-03 14:00N 50°24' W 059°30'6 6.0 020 / 121026.6 -2.3-5.6 3.1
2017-Dec-03 13:00N 50°30' W 059°30'0 0.0 030 / 141026.1 -3.5-7.0 2.7
2017-Dec-03 12:00N 50°30' W 059°30'4 3.8 030 / 131025.9 -3.7-7.1 3.1
2017-Dec-03 11:00N 50°30' W 059°24'1414.2 010 / 161026.0 -3.4-6.9 3.5
2017-Dec-03 10:00N 50°42' W 059°12'0 0.0 360 / 91025.6 -4.1-7.4 3.5
2017-Dec-03 09:00N 50°42' W 059°12'4 3.8 010 / 91025.5 -4.0-7.2 3.7
2017-Dec-03 08:00N 50°42' W 059°06'1414.2 350 / 191025.1 -2.2-6.4 3.9
2017-Dec-03 07:00N 50°54' W 058°54'6 6.0 340 / 131025.2 -3.2-7.3 3.7
2017-Dec-03 06:00N 50°48' W 058°54'6 6.0 340 / 71025.2 -2.7-6.7 4.1
2017-Dec-03 05:00N 50°54' W 058°54'1312.8 360 / 211024.4 -1.5-5.2 3.7
2017-Dec-03 04:00N 51°00' W 058°36'1414.2 360 / 191024.4 -1.0-4.9 3.6
2017-Dec-03 03:00N 51°12' W 058°24'8 7.5 360 / 121023.9 -1.3-5.2 3.1
2017-Dec-03 02:00N 51°12' W 058°36'0 0.0 340 / 71024.6 -1.2-4.3 4.0
2017-Dec-03 01:00N 51°12' W 058°36'1515.0 350 / 111023.9 -0.3-3.0 2.4
2017-Dec-03 00:00N 51°12' W 058°12'1312.8 360 / 191022.9 1.0-1.7 3.5
2017-Dec-02 23:00N 51°18' W 057°54'1515.0 360 / 161022.2 1.7-0.0 3.7
2017-Dec-02 22:00N 51°18' W 057°30'1312.7 300 / 71021.9 2.3 1.8 3.9
2017-Dec-02 21:00N 51°24' W 057°12'0 0.0 290 / 31021.9 2.4 1.7 4.0
2017-Dec-02 20:00N 51°24' W 057°12'0 0.0 240 / 21021.7 2.5 1.5 3.8
2017-Dec-02 19:00N 51°24' W 057°12'0 0.0 270 / 41021.5 2.3 1.2 3.8
2017-Dec-02 18:00N 51°24' W 057°12'0 0.0 250 / 61021.3 2.1 0.9 3.9
2017-Dec-02 17:00N 51°24' W 057°12'10 9.6 240 / 81021.5 2.6 1.4 3.8
2017-Dec-02 16:00N 51°18' W 057°24'8 7.5 220 / 111021.6 2.6 1.4 3.8
2017-Dec-02 15:00N 51°18' W 057°36'8 7.5
2017-Dec-02 14:00N 51°18' W 057°48'10 9.6 220 / 121021.9 2.4 1.3 3.6
2017-Dec-02 13:00N 51°12' W 058°00'8 7.5 210 / 131021.4 2.6 1.6 3.5
2017-Dec-02 12:00N 51°12' W 058°12'1111.3 230 / 111021.4 3.1 2.1 3.5
2017-Dec-02 11:00N 51°12' W 058°30'4 3.8 210 / 71021.0 2.2 1.7 2.7
2017-Dec-02 10:00N 51°12' W 058°36'0 0.0 240 / 41021.0 2.6 1.9 3.2
2017-Dec-02 09:00N 51°12' W 058°36'8 7.5 230 / 61020.9 2.7 2.0 3.1
2017-Dec-02 08:00N 51°12' W 058°24'1414.2 220 / 161020.9 3.0 1.9 3.6
2017-Dec-02 07:00N 51°00' W 058°36'1312.8 210 / 161021.0 3.2 2.3 3.5
2017-Dec-02 06:00N 50°54' W 058°54'6 6.0 220 / 191020.9 3.1 2.2 3.8
2017-Dec-02 05:00N 50°48' W 058°54'0 0.0 210 / 91020.7 2.7 1.8 4.0
2017-Dec-02 04:00N 50°48' W 058°54'0 0.0 200 / 101021.2 2.8 2.0 3.9
2017-Dec-02 03:00N 50°48' W 058°54'6 6.0 200 / 141020.6 2.9 2.3 3.7
2017-Dec-02 02:00N 50°42' W 058°54'1111.4 210 / 201020.9 3.4 2.6 3.8
2017-Dec-02 01:00N 50°42' W 059°12'0 0.0 200 / 181020.3 2.8 1.7 3.2
2017-Dec-02 00:00N 50°42' W 059°12'0 0.0 200 / 181020.2 2.6 1.9 3.2
2017-Dec-01 23:00N 50°42' W 059°12'1312.6 200 / 201020.3 2.7 1.6 3.4
2017-Dec-01 22:00N 50°30' W 059°18'8 7.6 200 / 221020.0 3.4 2.0 3.7
2017-Dec-01 21:00N 50°30' W 059°30'0 0.0 180 / 181019.7 2.8 1.3 3.2
2017-Dec-01 20:00N 50°30' W 059°30'4 3.8 180 / 181019.6 2.7 0.9 3.2
2017-Dec-01 19:00N 50°30' W 059°24'1414.2 190 / 201019.6 3.4 1.3 3.1
2017-Dec-01 18:00N 50°18' W 059°36'7 7.1 190 / 191019.5 3.4 1.6 2.9
2017-Dec-01 17:00N 50°12' W 059°42'10 9.8 190 / 231019.3 3.4 1.4 2.6
2017-Dec-01 16:00N 50°06' W 059°54'   200 / 241019.5 3.4 0.9 2.6
Track history (hours):
 
Tides and Currents Weather Stations Pressure Air Temp Water Temp Dewpoint Dewpoint Depression Visibility Wind Speed Wind Dir Waves Ship Positions

Bella Desgagnes

Last reported at 2017-Dec-11 16:00 UTC. Time now 2017-Dec-12 06:24 UTC.
Position N 49°48' W 064°30'.

Length 97 m; draft 4.5 m.

Type: Passenger vessel. MMSI: 316023823.

Wind from 280 at 23 knots

Barometer 1012.9 mb
Air temperature -11.2 ° C
Dewpoint -17.5 ° C
Water temperature 0.8 ° C

Date/timePositionNaut miles runAvg speedWind from/ knotsBaromVisibWave heightAir tempDewpointWater temp
2017-Dec-11 16:00N 49°48' W 064°30'6 6.0 280 / 231012.9 -11.2-17.5 0.8
2017-Dec-11 15:00N 49°54' W 064°30'8 7.7 290 / 311011.8 -12.1-17.5 0.8
2017-Dec-11 14:00N 49°54' W 064°18'7 7.1 270 / 321010.2 -11.3-16.6 1.2
2017-Dec-11 13:00N 50°00' W 064°12'1313.0 270 / 291008.8 -9.7-15.6 1.3
2017-Dec-11 12:00N 50°06' W 063°54'7 7.1 270 / 321007.3 -9.1-13.9 1.3
2017-Dec-11 11:00N 50°12' W 063°48'4 3.8 280 / 301005.9 -8.8-11.3 1.1
2017-Dec-11 10:00N 50°12' W 063°42'4 3.8 290 / 251004.6 -8.2-11.4 1.1
2017-Dec-11 09:00N 50°12' W 063°36'0 0.0 280 / 181004.7 -8.4-10.0 0.9
2017-Dec-11 08:00N 50°12' W 063°36'8 7.7 280 / 161003.3 -7.6-10.8 0.9
2017-Dec-11 07:00N 50°12' W 063°24'8 7.7 290 / 261002.8 -5.8-9.6 1.1
2017-Dec-11 06:00N 50°12' W 063°12'1313.0 300 / 171001.9 -5.6-7.4 1.1
2017-Dec-11 05:00N 50°06' W 062°54'8 7.7 290 / 181001.1 -5.3-9.6 1.2
2017-Dec-11 04:00N 50°06' W 062°42'8 7.7 300 / 191000.3 -5.0-10.2 1.2
2017-Dec-11 03:00N 50°06' W 062°30'8 7.7 290 / 26999.2 -4.6-9.0 1.4
2017-Dec-11 02:00N 50°06' W 062°18'1211.5 290 / 27998.2 -3.9-8.2 1.4
2017-Dec-11 01:00N 50°06' W 062°00'1211.5 290 / 24996.4 -3.5-6.9 1.6
2017-Dec-11 00:00N 50°06' W 061°42'1211.5 300 / 29995.0 -3.0-6.9 1.9
2017-Dec-10 23:00N 50°06' W 061°24'7 7.1 290 / 28992.4 -3.9-6.8 2.3
2017-Dec-10 22:00N 50°12' W 061°18'0 0.0 280 / 19991.3 -3.9-5.9 2.2
2017-Dec-10 21:00N 50°12' W 061°18'10 9.8 280 / 14988.9 -2.9-4.7 2.1
2017-Dec-10 20:00N 50°06' W 061°06'1211.5 310 / 26986.4 -1.3-3.5 2.1
2017-Dec-10 19:00N 50°06' W 060°48'7 7.1 330 / 30984.4 -0.7-2.4 2.4
2017-Dec-10 18:00N 50°12' W 060°42'0 0.0 320 / 19984.4 -0.8-1.8 2.5
2017-Dec-10 17:00N 50°12' W 060°42'0 0.0 340 / 15984.2 -0.9-1.6 2.2
2017-Dec-10 16:00N 50°12' W 060°42'0 0.0 360 / 13986.4 -0.7-1.8 2.4
2017-Dec-10 15:00N 50°12' W 060°42'10 9.8 050 / 29988.0 -1.0-2.0 2.1
2017-Dec-10 14:00N 50°06' W 060°30'8 7.7 050 / 28990.6 -0.7-0.9 2.0
2017-Dec-10 13:00N 50°06' W 060°18'8 7.7 040 / 30992.4 -0.2-0.4 2.2
2017-Dec-10 12:00N 50°06' W 060°06'1313.0 050 / 29996.0 -0.1-0.3 2.3
2017-Dec-10 11:00N 50°12' W 059°48'10 9.7 060 / 241000.3 -0.3-0.7 2.8
2017-Dec-10 10:00N 50°18' W 059°36'7 7.1 070 / 201003.4 -0.9-1.3 2.9
2017-Dec-10 09:00N 50°24' W 059°30'6 6.0 090 / 201005.5 -1.3-2.0 2.6
2017-Dec-10 08:00N 50°30' W 059°30'0 0.0 080 / 161008.2 -0.5-1.4 3.0
2017-Dec-10 07:00N 50°30' W 059°30'0 0.0 090 / 121011.1 -0.0-1.0 3.1
2017-Dec-10 06:00N 50°30' W 059°30'1312.9 090 / 131012.2 0.9-4.1 3.1
2017-Dec-10 05:00N 50°36' W 059°12'6 6.0 130 / 111013.6 0.9-5.7 2.9
2017-Dec-10 04:00N 50°42' W 059°12'4 3.8 150 / 101015.3 0.7-5.0 2.9
2017-Dec-10 03:00N 50°42' W 059°06'1414.2 180 / 121016.2 1.0-5.3 3.0
2017-Dec-10 02:00N 50°54' W 058°54'6 6.0 190 / 151017.5 0.8-4.8 3.4
2017-Dec-10 01:00N 50°48' W 058°54'0 0.0 210 / 61017.7 -0.0-4.9 3.6
2017-Dec-10 00:00N 50°48' W 058°54'10 9.7 210 / 91017.2 0.2-5.2 2.6
2017-Dec-09 23:00N 50°54' W 058°42'1716.5 240 / 121017.5 0.5-5.0 2.6
2017-Dec-09 22:00N 51°06' W 058°24'10 9.6 230 / 111017.8 -0.3-5.2 2.6
2017-Dec-09 21:00N 51°12' W 058°36'0 0.0 220 / 61018.0 -2.1-6.8 4.1
2017-Dec-09 20:00N 51°12' W 058°36'0 0.0 230 / 21017.6 -2.3-6.9 4.0
2017-Dec-09 19:00N 51°12' W 058°36'4 3.8 260 / 51017.0 -2.0-7.7 3.7
2017-Dec-09 18:00N 51°12' W 058°30'1515.0 270 / 151016.1 -2.0-8.2 2.8
2017-Dec-09 17:00N 51°12' W 058°06'1312.8 280 / 161015.6 -2.4-7.6 2.8
2017-Dec-09 16:00N 51°18' W 057°48'1515.0 270 / 231015.3 -2.4-7.4 2.7
2017-Dec-09 15:00N 51°18' W 057°24'1312.7 270 / 211014.9 -2.1-7.3 3.6
2017-Dec-09 14:00N 51°24' W 057°06'0 0.0 280 / 71015.3 -2.5-7.2
2017-Dec-09 13:00N 51°24' W 057°06'0 0.0 320 / 101014.7 -6.0-8.4
2017-Dec-09 12:00N 51°24' W 057°06'0 0.0 300 / 71014.3 -3.6-6.8 3.1
2017-Dec-09 11:00N 51°24' W 057°06'0 0.0 330 / 71013.5 -6.7-9.4 3.3
2017-Dec-09 10:00N 51°24' W 057°06'4 3.7 330 / 91013.0 -6.8-9.8 3.2
2017-Dec-09 09:00N 51°24' W 057°12'1312.7 300 / 101012.7 -3.6-6.5 3.3
2017-Dec-09 08:00N 51°18' W 057°30'8 7.5 270 / 121011.8 -3.0-6.3 3.4
2017-Dec-09 07:00N 51°18' W 057°42'4 3.8 280 / 121011.7 -3.0-6.8 2.7
2017-Dec-09 06:00N 51°18' W 057°48'10 9.6 270 / 131011.3 -2.7-7.3 3.4
2017-Dec-09 05:00N 51°12' W 058°00'8 7.5 260 / 141011.1 -3.0-7.8 2.8
2017-Dec-09 04:00N 51°12' W 058°12'1111.3 260 / 101010.6 -3.8-7.7 2.7
2017-Dec-09 03:00N 51°12' W 058°30'4 3.8 270 / 61010.7 -4.7-8.6 2.1
2017-Dec-09 02:00N 51°12' W 058°36'0 0.0 250 / 81010.5 -4.4-8.5 2.9
2017-Dec-09 01:00N 51°12' W 058°36'8 7.5 240 / 91009.9 -5.2-8.4 2.5
2017-Dec-09 00:00N 51°12' W 058°24'1414.2 260 / 181009.5 -4.2-8.6 2.3
2017-Dec-08 23:00N 51°00' W 058°36'1312.8 270 / 171008.8 -3.4-8.4 2.8
2017-Dec-08 22:00N 50°54' W 058°54'6 6.0 270 / 131008.2 -4.0-8.6 3.4
2017-Dec-08 21:00N 50°48' W 058°54'0 0.0 280 / 71007.3 -3.5-8.4 3.9
2017-Dec-08 20:00N 50°48' W 058°54'0 0.0 270 / 81006.0 -2.4-8.5 4.2
2017-Dec-08 19:00N 50°48' W 058°54'10 9.7 260 / 151004.7 -1.5-8.1 3.3
2017-Dec-08 18:00N 50°42' W 059°06'4 3.8 260 / 161004.8 -0.0-7.3 2.6
2017-Dec-08 17:00N 50°42' W 059°12'0 0.0 280 / 141004.5 -1.2-6.9 3.1
2017-Dec-08 16:00N 50°42' W 059°12'6 6.0 270 / 131004.6 -1.6-6.3 3.2
2017-Dec-08 15:00N 50°36' W 059°12'1312.9 270 / 121005.1 -1.7-6.0 3.6
2017-Dec-08 14:00N 50°30' W 059°30'0 0.0 280 / 101005.0 -1.8-5.9 3.5
2017-Dec-08 13:00N 50°30' W 059°30'0 0.0 260 / 111004.5 -2.1-5.7 3.9
2017-Dec-08 12:00N 50°30' W 059°30'6 6.0 250 / 111004.2 -2.3-5.0 3.2
2017-Dec-08 11:00N 50°24' W 059°30'7 7.1 250 / 131003.7 -1.8-5.2 2.4
2017-Dec-08 10:00N 50°18' W 059°36'10 9.7 260 / 151003.6 -1.9-5.6 3.2
2017-Dec-08 09:00N 50°12' W 059°48'7 7.1 270 / 111003.7 -0.9-4.9 2.6
2017-Dec-08 08:00N 50°06' W 059°54'1211.5 250 / 111003.8 -0.6-3.7 2.6
2017-Dec-08 07:00N 50°06' W 060°12'1211.5 270 / 131003.7 -0.9-4.8 2.5
2017-Dec-08 06:00N 50°06' W 060°30'10 9.8 290 / 141003.4 -1.2-5.9 2.3
2017-Dec-08 05:00N 50°12' W 060°42'0 0.0 300 / 131003.1 -2.1-5.1 2.5
2017-Dec-08 04:00N 50°12' W 060°42'0 0.0 300 / 111003.2 -1.1-5.4
2017-Dec-08 03:00N 50°12' W 060°42'0 0.0 270 / 221002.8 -0.2-5.7 2.6
2017-Dec-08 02:00N 50°12' W 060°42'0 0.0 290 / 111003.2 -0.4-4.5 2.8
2017-Dec-08 01:00N 50°12' W 060°42'7 7.1 270 / 191003.0 -0.6-3.3 2.4
2017-Dec-08 00:00N 50°06' W 060°48'1211.5 290 / 171003.3 -0.8-3.5 2.2
2017-Dec-07 23:00N 50°06' W 061°06'10 9.8 280 / 221002.8 0.1-3.2 2.2
2017-Dec-07 22:00N 50°12' W 061°18'0 0.0 260 / 101002.5 -0.3-4.7 2.5
2017-Dec-07 21:00N 50°12' W 061°18'0 0.0 280 / 61002.3 -0.7-4.1 2.2
2017-Dec-07 20:00N 50°12' W 061°18'1313.0 250 / 121002.3 0.4-4.9 2.0
2017-Dec-07 19:00N 50°06' W 061°36'1211.5 240 / 101002.4 0.9-4.3 1.6
2017-Dec-07 18:00N 50°06' W 061°54'7 7.1 240 / 171002.3 0.7-5.0 1.7
2017-Dec-07 17:00N 50°12' W 061°48'0 0.0 240 / 121002.9 0.9-2.8 1.3
2017-Dec-07 16:00N 50°12' W 061°48'8 7.7 240 / 121003.1 0.9-2.7 1.3
2017-Dec-07 15:00N 50°12' W 062°00'1211.5 240 / 141003.8 1.1-2.5 1.6
2017-Dec-07 14:00N 50°12' W 062°18'8 7.7 230 / 131003.8 0.9-2.4 1.5
2017-Dec-07 13:00N 50°12' W 062°30'8 7.7 240 / 151004.0 1.0-2.5 1.8
2017-Dec-07 12:00N 50°12' W 062°42'10 9.8 250 / 141004.1 0.7-4.7 1.6
2017-Dec-07 11:00N 50°06' W 062°54'1313.0 250 / 161003.9 0.9-3.9 1.5
2017-Dec-07 10:00N 50°12' W 063°12'8 7.7 260 / 191003.5 1.1-4.4 1.4
2017-Dec-07 09:00N 50°12' W 063°24'8 7.7 260 / 201003.4 1.2-4.3 1.5
2017-Dec-07 08:00N 50°12' W 063°36'0 0.0 260 / 151003.3 0.4-3.8
2017-Dec-07 07:00N 50°12' W 063°36'0 0.0 260 / 151003.1 0.5-4.5 1.2
2017-Dec-07 06:00N 50°12' W 063°36'0 0.0 260 / 131003.1 0.8-4.5 1.1
2017-Dec-07 05:00N 50°12' W 063°36'0 0.0 250 / 111003.1 0.7-2.1 1.2
2017-Dec-07 04:00N 50°12' W 063°36'8 7.7 250 / 121003.4 0.7-1.7 1.1
2017-Dec-07 03:00N 50°12' W 063°48'10 9.8 270 / 201003.4 1.1-1.8 1.5
2017-Dec-07 02:00N 50°06' W 064°00'10 9.8 270 / 231003.3 1.2-2.0 1.6
2017-Dec-07 01:00N 50°00' W 064°12'10 9.8 260 / 161003.6 1.3-1.8 1.3
2017-Dec-07 00:00N 49°54' W 064°24'8 7.7 270 / 201002.8 1.3-1.9 1.2
2017-Dec-06 23:00N 49°54' W 064°36'10 9.8 250 / 201001.4 1.6-1.7 1.2
2017-Dec-06 22:00N 49°48' W 064°24'0 0.0 270 / 141002.2 2.1-1.0 1.1
2017-Dec-06 21:00N 49°48' W 064°24'0 0.0 280 / 51002.1 2.1 1.0 0.4
2017-Dec-06 20:00N 49°48' W 064°24'0 0.0 220 / 141001.6 2.3 2.0 0.3
2017-Dec-06 19:00N 49°48' W 064°24'7 7.1 130 / 191001.9 1.9 1.6 0.5
2017-Dec-06 18:00N 49°42' W 064°18'0 0.0 140 / 241002.3 2.3 1.8
2017-Dec-06 17:00N 49°42' W 064°18'0 0.0 130 / 301003.0 2.3 1.6
2017-Dec-06 16:00N 49°42' W 064°18'0 0.0 140 / 291005.2 2.3 1.5
2017-Dec-06 15:00N 49°42' W 064°18'0 0.0 140 / 331006.1 2.1 1.5
2017-Dec-06 14:00N 49°42' W 064°18'0 0.0 150 / 341007.4 2.3 1.3 1.1
2017-Dec-06 13:00N 49°42' W 064°18'0 0.0 150 / 421007.3 2.7 1.4 1.1
2017-Dec-06 12:00N 49°42' W 064°18'6 6.0 150 / 411007.6 1.8 0.5 1.1
2017-Dec-06 11:00N 49°48' W 064°18'0 0.0 140 / 421008.4 1.0 0.9
2017-Dec-06 10:00N 49°48' W 064°18'0 0.0 140 / 421010.4 0.5 0.4
2017-Dec-06 09:00N 49°48' W 064°18'0 0.0 140 / 391012.4 0.1-0.0
2017-Dec-06 08:00N 49°48' W 064°18'0 0.0 140 / 351014.9 -0.0-0.1
2017-Dec-06 07:00N 49°48' W 064°18'0 0.0 140 / 321017.2 -0.1-0.2
2017-Dec-06 06:00N 49°48' W 064°18'0 0.0 130 / 311018.7 -0.1-0.2 1.0
2017-Dec-06 05:00N 49°48' W 064°18'0 0.0 140 / 311020.4 -0.1-0.2 1.1
2017-Dec-06 04:00N 49°48' W 064°18'4 3.9 140 / 311021.3 -0.2-0.3 1.0
2017-Dec-06 03:00N 49°48' W 064°24'8 7.7 150 / 331022.3 -0.2-0.5 1.2
2017-Dec-06 02:00N 49°48' W 064°36'8 7.7 150 / 321022.7 -0.3-0.7 1.4
2017-Dec-06 01:00N 49°48' W 064°48'10 9.8 150 / 341022.8 0.8-2.0 1.3
2017-Dec-06 00:00N 49°54' W 065°00'1211.6 150 / 321022.8 0.5-2.0 1.4
2017-Dec-05 23:00N 49°54' W 065°18'8 7.7 140 / 311023.3 0.3-2.2 1.2
2017-Dec-05 22:00N 49°54' W 065°30'1716.7 130 / 311022.7 0.2-2.1 1.4
2017-Dec-05 21:00N 50°06' W 065°48'1211.5 140 / 271024.0 0.3-3.0 1.8
2017-Dec-05 20:00N 50°06' W 066°06'1313.0 130 / 241024.4 -0.4-2.0 1.7
2017-Dec-05 19:00N 50°12' W 066°24'0 0.0 110 / 201025.7 -0.9-3.0 1.8
2017-Dec-05 18:00N 50°12' W 066°24'0 0.0 100 / 201026.5 -0.7-3.2
2017-Dec-05 17:00N 50°12' W 066°24'0 0.0 100 / 171027.8 -0.5-2.9
2017-Dec-05 16:00N 50°12' W 066°24'0 0.0 100 / 181029.0 -0.6-2.8
2017-Dec-05 15:00N 50°12' W 066°24'0 0.0 100 / 171030.0 -0.8-3.1
2017-Dec-05 14:00N 50°12' W 066°24'0 0.0 070 / 61031.0 -2.9-4.9
2017-Dec-05 13:00N 50°12' W 066°24'0 0.0 070 / 51031.7 -3.7-5.6
2017-Dec-05 12:00N 50°12' W 066°24'0 0.0 070 / 61032.2 -4.6-6.6
2017-Dec-05 11:00N 50°12' W 066°24'0 0.0 060 / 71032.3 -5.3-7.4
2017-Dec-05 10:00N 50°12' W 066°24'0 0.0 070 / 61032.1 -6.4-8.5
2017-Dec-05 09:00N 50°12' W 066°24'0 0.0 060 / 41032.5 -7.2-9.6 1.0
2017-Dec-05 08:00N 50°12' W 066°24'0 0.0 090 / 41032.7 -7.2-9.8 1.5
2017-Dec-05 07:00N 50°12' W 066°24'4 3.8 080 / 21032.9 -8.4-10.9 1.6
2017-Dec-05 06:00N 50°12' W 066°18'1716.5 010 / 81032.5 -5.1-7.5 1.0
2017-Dec-05 05:00N 50°06' W 065°54'1313.0 220 / 41033.0 -1.7-4.6 1.8
2017-Dec-05 04:00N 50°00' W 065°36'1716.6 230 / 31033.0 -1.6-6.0 1.2
2017-Dec-05 03:00N 49°54' W 065°12'1211.6 220 / 31033.1 -1.7-5.3 1.2
2017-Dec-05 02:00N 49°54' W 064°54'10 9.8 250 / 71033.5 -1.8-5.1 1.3
2017-Dec-05 01:00N 49°48' W 064°42'8 7.7 290 / 91033.4 -1.6-4.9 1.1
2017-Dec-05 00:00N 49°48' W 064°30'4 3.9 300 / 121033.6 -1.5-4.7 1.4
2017-Dec-04 23:00N 49°48' W 064°24'0 0.0 350 / 41034.1 -2.8-5.1 1.4
2017-Dec-04 22:00N 49°48' W 064°24'0 0.0 330 / 61033.6 -2.3-4.8 1.0
2017-Dec-04 21:00N 49°48' W 064°24'10 9.8 300 / 81033.0 -1.2-4.5 1.3
2017-Dec-04 20:00N 49°54' W 064°36'8 7.7 300 / 71032.2 -1.1-4.4 1.4
2017-Dec-04 19:00N 49°54' W 064°24'10 9.8 320 / 81031.7 -0.6-4.6 1.4
2017-Dec-04 18:00N 50°00' W 064°12'1313.0 340 / 71031.6 -0.4-5.0 2.2
2017-Dec-04 17:00N 50°06' W 063°54'7 7.1 360 / 81031.4 -1.4-6.0 1.8
2017-Dec-04 16:00N 50°12' W 063°48'8 7.7 360 / 71031.5 -1.8-6.8 1.6
2017-Dec-04 15:00N 50°12' W 063°36'0 0.0 020 / 41031.9 -2.0-7.4 1.1
2017-Dec-04 14:00N 50°12' W 063°36'0 0.0 020 / 41031.6 -2.7-7.1 1.3
2017-Dec-04 13:00N 50°12' W 063°36'1211.5 030 / 151030.9 -2.7-6.6 1.3
2017-Dec-04 12:00N 50°12' W 063°18'10 9.8 040 / 151030.2 -2.9-6.7 1.5
2017-Dec-04 11:00N 50°06' W 063°06'8 7.7 040 / 141029.7 -1.9-5.5 1.6
2017-Dec-04 10:00N 50°06' W 062°54'1313.0 050 / 141029.3 -2.3-6.0 1.8
2017-Dec-04 09:00N 50°12' W 062°36'8 7.7 040 / 131028.7 -2.5-6.1 1.5
2017-Dec-04 08:00N 50°12' W 062°24'1211.5 050 / 141028.0 -3.0-6.1 1.6
2017-Dec-04 07:00N 50°12' W 062°06'1211.5 050 / 141027.7 -2.6-6.2 1.5
2017-Dec-04 06:00N 50°12' W 061°48'0 0.0 030 / 101027.3 -4.2-7.2 2.3
2017-Dec-04 05:00N 50°12' W 061°48'7 7.1 040 / 131027.1 -3.5-6.8 1.8
2017-Dec-04 04:00N 50°06' W 061°42'1515.4 360 / 101027.1 -2.8-5.7 2.4
2017-Dec-04 03:00N 50°06' W 061°18'6 6.0 020 / 81026.9 -2.2-4.9 1.8
2017-Dec-04 02:00N 50°12' W 061°18'0 0.0 020 / 81026.8 -2.5-5.3 1.9
2017-Dec-04 01:00N 50°12' W 061°18'1716.5 040 / 121026.5 -1.7-4.7 1.7
2017-Dec-04 00:00N 50°06' W 060°54'10 9.8 030 / 151026.3 -1.0-3.9 2.2
2017-Dec-03 23:00N 50°12' W 060°42'0 0.0 020 / 71026.6 -1.5-4.2 2.7
2017-Dec-03 22:00N 50°12' W 060°42'0 0.0 010 / 61026.6 -1.2-3.9 2.9
2017-Dec-03 21:00N 50°12' W 060°42'0 0.0 010 / 61026.3 -1.3-3.9 2.5
2017-Dec-03 20:00N 50°12' W 060°42'10 9.8 030 / 101025.8 -1.3-4.3 2.1
2017-Dec-03 19:00N 50°06' W 060°30'8 7.7 060 / 111025.4 -0.6-3.8 2.4
2017-Dec-03 18:00N 50°06' W 060°18'1211.5 060 / 151025.4 -0.7-3.0 2.7
2017-Dec-03 17:00N 50°06' W 060°00'10 9.8 050 / 141025.4 -0.9-3.4 2.6
2017-Dec-03 16:00N 50°12' W 059°48'10 9.7 040 / 141025.6 -0.7-3.4 2.7
2017-Dec-03 15:00N 50°18' W 059°36'7 7.1 030 / 131026.2 -0.8-4.3 3.3
2017-Dec-03 14:00N 50°24' W 059°30'6 6.0 020 / 121026.6 -2.3-5.6 3.1
2017-Dec-03 13:00N 50°30' W 059°30'0 0.0 030 / 141026.1 -3.5-7.0 2.7
2017-Dec-03 12:00N 50°30' W 059°30'4 3.8 030 / 131025.9 -3.7-7.1 3.1
2017-Dec-03 11:00N 50°30' W 059°24'1414.2 010 / 161026.0 -3.4-6.9 3.5
2017-Dec-03 10:00N 50°42' W 059°12'0 0.0 360 / 91025.6 -4.1-7.4 3.5
2017-Dec-03 09:00N 50°42' W 059°12'4 3.8 010 / 91025.5 -4.0-7.2 3.7
2017-Dec-03 08:00N 50°42' W 059°06'1414.2 350 / 191025.1 -2.2-6.4 3.9
2017-Dec-03 07:00N 50°54' W 058°54'6 6.0 340 / 131025.2 -3.2-7.3 3.7
2017-Dec-03 06:00N 50°48' W 058°54'6 6.0 340 / 71025.2 -2.7-6.7 4.1
2017-Dec-03 05:00N 50°54' W 058°54'1312.8 360 / 211024.4 -1.5-5.2 3.7
2017-Dec-03 04:00N 51°00' W 058°36'1414.2 360 / 191024.4 -1.0-4.9 3.6
2017-Dec-03 03:00N 51°12' W 058°24'8 7.5 360 / 121023.9 -1.3-5.2 3.1
2017-Dec-03 02:00N 51°12' W 058°36'0 0.0 340 / 71024.6 -1.2-4.3 4.0
2017-Dec-03 01:00N 51°12' W 058°36'1515.0 350 / 111023.9 -0.3-3.0 2.4
2017-Dec-03 00:00N 51°12' W 058°12'1312.8 360 / 191022.9 1.0-1.7 3.5
2017-Dec-02 23:00N 51°18' W 057°54'1515.0 360 / 161022.2 1.7-0.0 3.7
2017-Dec-02 22:00N 51°18' W 057°30'1312.7 300 / 71021.9 2.3 1.8 3.9
2017-Dec-02 21:00N 51°24' W 057°12'0 0.0 290 / 31021.9 2.4 1.7 4.0
2017-Dec-02 20:00N 51°24' W 057°12'0 0.0 240 / 21021.7 2.5 1.5 3.8
2017-Dec-02 19:00N 51°24' W 057°12'0 0.0 270 / 41021.5 2.3 1.2 3.8
2017-Dec-02 18:00N 51°24' W 057°12'0 0.0 250 / 61021.3 2.1 0.9 3.9
2017-Dec-02 17:00N 51°24' W 057°12'10 9.6 240 / 81021.5 2.6 1.4 3.8
2017-Dec-02 16:00N 51°18' W 057°24'8 7.5 220 / 111021.6 2.6 1.4 3.8
2017-Dec-02 15:00N 51°18' W 057°36'8 7.5
2017-Dec-02 14:00N 51°18' W 057°48'10 9.6 220 / 121021.9 2.4 1.3 3.6
2017-Dec-02 13:00N 51°12' W 058°00'8 7.5 210 / 131021.4 2.6 1.6 3.5
2017-Dec-02 12:00N 51°12' W 058°12'1111.3 230 / 111021.4 3.1 2.1 3.5
2017-Dec-02 11:00N 51°12' W 058°30'4 3.8 210 / 71021.0 2.2 1.7 2.7
2017-Dec-02 10:00N 51°12' W 058°36'0 0.0 240 / 41021.0 2.6 1.9 3.2
2017-Dec-02 09:00N 51°12' W 058°36'8 7.5 230 / 61020.9 2.7 2.0 3.1
2017-Dec-02 08:00N 51°12' W 058°24'1414.2 220 / 161020.9 3.0 1.9 3.6
2017-Dec-02 07:00N 51°00' W 058°36'1312.8 210 / 161021.0 3.2 2.3 3.5
2017-Dec-02 06:00N 50°54' W 058°54'6 6.0 220 / 191020.9 3.1 2.2 3.8
2017-Dec-02 05:00N 50°48' W 058°54'0 0.0 210 / 91020.7 2.7 1.8 4.0
2017-Dec-02 04:00N 50°48' W 058°54'0 0.0 200 / 101021.2 2.8 2.0 3.9
2017-Dec-02 03:00N 50°48' W 058°54'6 6.0 200 / 141020.6 2.9 2.3 3.7
2017-Dec-02 02:00N 50°42' W 058°54'1111.4 210 / 201020.9 3.4 2.6 3.8
2017-Dec-02 01:00N 50°42' W 059°12'0 0.0 200 / 181020.3 2.8 1.7 3.2
2017-Dec-02 00:00N 50°42' W 059°12'0 0.0 200 / 181020.2 2.6 1.9 3.2
2017-Dec-01 23:00N 50°42' W 059°12'1312.6 200 / 201020.3 2.7 1.6 3.4
2017-Dec-01 22:00N 50°30' W 059°18'8 7.6 200 / 221020.0 3.4 2.0 3.7
2017-Dec-01 21:00N 50°30' W 059°30'0 0.0 180 / 181019.7 2.8 1.3 3.2
2017-Dec-01 20:00N 50°30' W 059°30'4 3.8 180 / 181019.6 2.7 0.9 3.2
2017-Dec-01 19:00N 50°30' W 059°24'1414.2 190 / 201019.6 3.4 1.3 3.1
2017-Dec-01 18:00N 50°18' W 059°36'7 7.1 190 / 191019.5 3.4 1.6 2.9
2017-Dec-01 17:00N 50°12' W 059°42'10 9.8 190 / 231019.3 3.4 1.4 2.6
2017-Dec-01 16:00N 50°06' W 059°54'   200 / 241019.5 3.4 0.9 2.6

Dump ship's entire track history